<?xml version="1.0" encoding="UTF-8" standalone="no" ?>
<gpx xmlns="http://www.topografix.com/GPX/1/1" xmlns:xsi="http://www.w3.org/2001/XMLSchema-instance" xsi:schemaLocation="http://www.topografix.com/GPX/1/1 http://www.topografix.com/GPX/1/1/gpx.xsd" version="1.1" creator="VisuGPX - https://www.visugpx.com">
  <metadata>
    <name>Montagne de Sumiou (Lure)</name>
  </metadata>
  <trk>
    <name><![CDATA[Montagne de Sumiou (Lure)]]></name>
    <trkseg>
      <trkpt lat="44.1477" lon="5.8816">
        <ele>558</ele>
        <time>2021-04-12T10:13:36+02:00</time>
      </trkpt>
      <trkpt lat="44.14463" lon="5.88396">
        <ele>577</ele>
        <time>2021-04-12T10:13:41+02:00</time>
      </trkpt>
      <trkpt lat="44.14191" lon="5.88619">
        <ele>585</ele>
        <time>2021-04-12T10:13:46+02:00</time>
      </trkpt>
      <trkpt lat="44.14151" lon="5.88705">
        <ele>598</ele>
        <time>2021-04-12T10:13:51+02:00</time>
      </trkpt>
      <trkpt lat="44.14068" lon="5.88782">
        <ele>606</ele>
        <time>2021-04-12T10:13:56+02:00</time>
      </trkpt>
      <trkpt lat="44.14055" lon="5.88855">
        <ele>614</ele>
        <time>2021-04-12T10:14:01+02:00</time>
      </trkpt>
      <trkpt lat="44.13944" lon="5.89052">
        <ele>656</ele>
        <time>2021-04-12T10:14:06+02:00</time>
      </trkpt>
      <trkpt lat="44.1387" lon="5.88812">
        <ele>666</ele>
        <time>2021-04-12T10:14:11+02:00</time>
      </trkpt>
      <trkpt lat="44.13787" lon="5.88675">
        <ele>688</ele>
        <time>2021-04-12T10:14:16+02:00</time>
      </trkpt>
      <trkpt lat="44.13753" lon="5.88559">
        <ele>701</ele>
        <time>2021-04-12T10:14:21+02:00</time>
      </trkpt>
      <trkpt lat="44.13683" lon="5.8852">
        <ele>735</ele>
        <time>2021-04-12T10:14:26+02:00</time>
      </trkpt>
      <trkpt lat="44.13535" lon="5.88409">
        <ele>745</ele>
        <time>2021-04-12T10:14:31+02:00</time>
      </trkpt>
      <trkpt lat="44.13504" lon="5.88391">
        <ele>750</ele>
        <time>2021-04-12T10:14:36+02:00</time>
      </trkpt>
      <trkpt lat="44.13445" lon="5.88383">
        <ele>845</ele>
        <time>2021-04-12T10:14:41+02:00</time>
      </trkpt>
      <trkpt lat="44.13387" lon="5.884">
        <ele>898</ele>
        <time>2021-04-12T10:14:46+02:00</time>
      </trkpt>
      <trkpt lat="44.13338" lon="5.8846">
        <ele>915</ele>
        <time>2021-04-12T10:14:51+02:00</time>
      </trkpt>
      <trkpt lat="44.13267" lon="5.88473">
        <ele>936</ele>
        <time>2021-04-12T10:14:56+02:00</time>
      </trkpt>
      <trkpt lat="44.13214" lon="5.88456">
        <ele>946</ele>
        <time>2021-04-12T10:15:01+02:00</time>
      </trkpt>
      <trkpt lat="44.12909" lon="5.88142">
        <ele>904</ele>
        <time>2021-04-12T10:15:06+02:00</time>
      </trkpt>
      <trkpt lat="44.12894" lon="5.88211">
        <ele>895</ele>
        <time>2021-04-12T10:15:11+02:00</time>
      </trkpt>
      <trkpt lat="44.12934" lon="5.88288">
        <ele>889</ele>
        <time>2021-04-12T10:15:16+02:00</time>
      </trkpt>
      <trkpt lat="44.12722" lon="5.88087">
        <ele>864</ele>
        <time>2021-04-12T10:15:21+02:00</time>
      </trkpt>
      <trkpt lat="44.12598" lon="5.87825">
        <ele>868</ele>
        <time>2021-04-12T10:15:26+02:00</time>
      </trkpt>
      <trkpt lat="44.12524" lon="5.87477">
        <ele>886</ele>
        <time>2021-04-12T10:15:31+02:00</time>
      </trkpt>
      <trkpt lat="44.12528" lon="5.8713">
        <ele>899</ele>
        <time>2021-04-12T10:15:36+02:00</time>
      </trkpt>
      <trkpt lat="44.12546" lon="5.86872">
        <ele>885</ele>
        <time>2021-04-12T10:15:41+02:00</time>
      </trkpt>
      <trkpt lat="44.12752" lon="5.86679">
        <ele>865</ele>
        <time>2021-04-12T10:15:46+02:00</time>
      </trkpt>
      <trkpt lat="44.12796" lon="5.86683">
        <ele>858</ele>
        <time>2021-04-12T10:15:51+02:00</time>
      </trkpt>
      <trkpt lat="44.12839" lon="5.86722">
        <ele>856</ele>
        <time>2021-04-12T10:15:56+02:00</time>
      </trkpt>
      <trkpt lat="44.129" lon="5.86726">
        <ele>889</ele>
        <time>2021-04-12T10:16:01+02:00</time>
      </trkpt>
      <trkpt lat="44.12937" lon="5.86876">
        <ele>909</ele>
        <time>2021-04-12T10:16:06+02:00</time>
      </trkpt>
      <trkpt lat="44.13002" lon="5.86902">
        <ele>927</ele>
        <time>2021-04-12T10:16:11+02:00</time>
      </trkpt>
      <trkpt lat="44.1302" lon="5.86979">
        <ele>944</ele>
        <time>2021-04-12T10:16:16+02:00</time>
      </trkpt>
      <trkpt lat="44.13079" lon="5.87134">
        <ele>970</ele>
        <time>2021-04-12T10:16:21+02:00</time>
      </trkpt>
      <trkpt lat="44.13113" lon="5.87121">
        <ele>983</ele>
        <time>2021-04-12T10:16:26+02:00</time>
      </trkpt>
      <trkpt lat="44.13141" lon="5.87155">
        <ele>1000</ele>
        <time>2021-04-12T10:16:31+02:00</time>
      </trkpt>
      <trkpt lat="44.13165" lon="5.87138">
        <ele>1010</ele>
        <time>2021-04-12T10:16:36+02:00</time>
      </trkpt>
      <trkpt lat="44.13205" lon="5.8716">
        <ele>1030</ele>
        <time>2021-04-12T10:16:41+02:00</time>
      </trkpt>
      <trkpt lat="44.13282" lon="5.87134">
        <ele>1055</ele>
        <time>2021-04-12T10:16:46+02:00</time>
      </trkpt>
      <trkpt lat="44.13328" lon="5.87151">
        <ele>1061</ele>
        <time>2021-04-12T10:16:51+02:00</time>
      </trkpt>
      <trkpt lat="44.13442" lon="5.87228">
        <ele>1058</ele>
        <time>2021-04-12T10:16:56+02:00</time>
      </trkpt>
      <trkpt lat="44.13319" lon="5.87065">
        <ele>1066</ele>
        <time>2021-04-12T10:17:01+02:00</time>
      </trkpt>
      <trkpt lat="44.13335" lon="5.86962">
        <ele>1078</ele>
        <time>2021-04-12T10:17:06+02:00</time>
      </trkpt>
      <trkpt lat="44.1327" lon="5.8661">
        <ele>1101</ele>
        <time>2021-04-12T10:17:11+02:00</time>
      </trkpt>
      <trkpt lat="44.13325" lon="5.86683">
        <ele>1104</ele>
        <time>2021-04-12T10:17:16+02:00</time>
      </trkpt>
      <trkpt lat="44.13356" lon="5.86683">
        <ele>1108</ele>
        <time>2021-04-12T10:17:21+02:00</time>
      </trkpt>
      <trkpt lat="44.13507" lon="5.86937">
        <ele>1134</ele>
        <time>2021-04-12T10:17:26+02:00</time>
      </trkpt>
      <trkpt lat="44.13498" lon="5.86585">
        <ele>1166</ele>
        <time>2021-04-12T10:17:31+02:00</time>
      </trkpt>
      <trkpt lat="44.13698" lon="5.86816">
        <ele>1185</ele>
        <time>2021-04-12T10:17:36+02:00</time>
      </trkpt>
      <trkpt lat="44.13627" lon="5.8649">
        <ele>1215</ele>
        <time>2021-04-12T10:17:41+02:00</time>
      </trkpt>
      <trkpt lat="44.13639" lon="5.86357">
        <ele>1229</ele>
        <time>2021-04-12T10:17:46+02:00</time>
      </trkpt>
      <trkpt lat="44.13556" lon="5.86164">
        <ele>1239</ele>
        <time>2021-04-12T10:17:51+02:00</time>
      </trkpt>
      <trkpt lat="44.13544" lon="5.8604">
        <ele>1251</ele>
        <time>2021-04-12T10:17:56+02:00</time>
      </trkpt>
      <trkpt lat="44.13609" lon="5.86095">
        <ele>1255</ele>
        <time>2021-04-12T10:18:01+02:00</time>
      </trkpt>
      <trkpt lat="44.1368" lon="5.86095">
        <ele>1261</ele>
        <time>2021-04-12T10:18:06+02:00</time>
      </trkpt>
      <trkpt lat="44.1384" lon="5.85988">
        <ele>1271</ele>
        <time>2021-04-12T10:18:11+02:00</time>
      </trkpt>
      <trkpt lat="44.13957" lon="5.86022">
        <ele>1178</ele>
        <time>2021-04-12T10:18:16+02:00</time>
      </trkpt>
      <trkpt lat="44.13846" lon="5.85941">
        <ele>1282</ele>
        <time>2021-04-12T10:18:21+02:00</time>
      </trkpt>
      <trkpt lat="44.13757" lon="5.85937">
        <ele>1289</ele>
        <time>2021-04-12T10:18:26+02:00</time>
      </trkpt>
      <trkpt lat="44.13664" lon="5.85851">
        <ele>1298</ele>
        <time>2021-04-12T10:18:31+02:00</time>
      </trkpt>
      <trkpt lat="44.13797" lon="5.85851">
        <ele>1310</ele>
        <time>2021-04-12T10:18:36+02:00</time>
      </trkpt>
      <trkpt lat="44.13867" lon="5.85804">
        <ele>1315</ele>
        <time>2021-04-12T10:18:41+02:00</time>
      </trkpt>
      <trkpt lat="44.13892" lon="5.85696">
        <ele>1325</ele>
        <time>2021-04-12T10:18:46+02:00</time>
      </trkpt>
      <trkpt lat="44.13858" lon="5.85606">
        <ele>1341</ele>
        <time>2021-04-12T10:18:51+02:00</time>
      </trkpt>
      <trkpt lat="44.1379" lon="5.85503">
        <ele>1369</ele>
        <time>2021-04-12T10:18:56+02:00</time>
      </trkpt>
      <trkpt lat="44.1376" lon="5.85353">
        <ele>1383</ele>
        <time>2021-04-12T10:19:01+02:00</time>
      </trkpt>
      <trkpt lat="44.13778" lon="5.85121">
        <ele>1399</ele>
        <time>2021-04-12T10:19:06+02:00</time>
      </trkpt>
      <trkpt lat="44.13867" lon="5.85121">
        <ele>1394</ele>
        <time>2021-04-12T10:19:11+02:00</time>
      </trkpt>
      <trkpt lat="44.13911" lon="5.85181">
        <ele>1389</ele>
        <time>2021-04-12T10:19:16+02:00</time>
      </trkpt>
      <trkpt lat="44.13969" lon="5.85332">
        <ele>1360</ele>
        <time>2021-04-12T10:19:21+02:00</time>
      </trkpt>
      <trkpt lat="44.14024" lon="5.8549">
        <ele>1337</ele>
        <time>2021-04-12T10:19:26+02:00</time>
      </trkpt>
      <trkpt lat="44.14065" lon="5.85525">
        <ele>1316</ele>
        <time>2021-04-12T10:19:31+02:00</time>
      </trkpt>
      <trkpt lat="44.14129" lon="5.85598">
        <ele>1266</ele>
        <time>2021-04-12T10:19:36+02:00</time>
      </trkpt>
      <trkpt lat="44.14163" lon="5.85576">
        <ele>1233</ele>
        <time>2021-04-12T10:19:41+02:00</time>
      </trkpt>
      <trkpt lat="44.142" lon="5.8561">
        <ele>1196</ele>
        <time>2021-04-12T10:19:46+02:00</time>
      </trkpt>
      <trkpt lat="44.14225" lon="5.85525">
        <ele>1201</ele>
        <time>2021-04-12T10:19:51+02:00</time>
      </trkpt>
      <trkpt lat="44.14403" lon="5.85366">
        <ele>1102</ele>
        <time>2021-04-12T10:19:56+02:00</time>
      </trkpt>
      <trkpt lat="44.1448" lon="5.85525">
        <ele>1051</ele>
        <time>2021-04-12T10:20:01+02:00</time>
      </trkpt>
      <trkpt lat="44.14539" lon="5.85808">
        <ele>964</ele>
        <time>2021-04-12T10:20:06+02:00</time>
      </trkpt>
      <trkpt lat="44.14619" lon="5.85898">
        <ele>931</ele>
        <time>2021-04-12T10:20:11+02:00</time>
      </trkpt>
      <trkpt lat="44.14739" lon="5.86061">
        <ele>890</ele>
        <time>2021-04-12T10:20:16+02:00</time>
      </trkpt>
      <trkpt lat="44.14662" lon="5.86083">
        <ele>888</ele>
        <time>2021-04-12T10:20:21+02:00</time>
      </trkpt>
      <trkpt lat="44.14585" lon="5.86044">
        <ele>889</ele>
        <time>2021-04-12T10:20:26+02:00</time>
      </trkpt>
      <trkpt lat="44.14443" lon="5.8622">
        <ele>860</ele>
        <time>2021-04-12T10:20:31+02:00</time>
      </trkpt>
      <trkpt lat="44.14317" lon="5.86417">
        <ele>843</ele>
        <time>2021-04-12T10:20:36+02:00</time>
      </trkpt>
      <trkpt lat="44.1428" lon="5.86499">
        <ele>834</ele>
        <time>2021-04-12T10:20:41+02:00</time>
      </trkpt>
      <trkpt lat="44.14295" lon="5.86572">
        <ele>818</ele>
        <time>2021-04-12T10:20:46+02:00</time>
      </trkpt>
      <trkpt lat="44.14357" lon="5.86529">
        <ele>806</ele>
        <time>2021-04-12T10:20:51+02:00</time>
      </trkpt>
      <trkpt lat="44.14425" lon="5.86563">
        <ele>788</ele>
        <time>2021-04-12T10:20:56+02:00</time>
      </trkpt>
      <trkpt lat="44.14456" lon="5.86529">
        <ele>785</ele>
        <time>2021-04-12T10:21:01+02:00</time>
      </trkpt>
      <trkpt lat="44.14517" lon="5.8655">
        <ele>762</ele>
        <time>2021-04-12T10:21:06+02:00</time>
      </trkpt>
      <trkpt lat="44.14563" lon="5.86486">
        <ele>756</ele>
        <time>2021-04-12T10:21:11+02:00</time>
      </trkpt>
      <trkpt lat="44.1461" lon="5.86503">
        <ele>749</ele>
        <time>2021-04-12T10:21:16+02:00</time>
      </trkpt>
      <trkpt lat="44.14699" lon="5.86786">
        <ele>700</ele>
        <time>2021-04-12T10:21:21+02:00</time>
      </trkpt>
      <trkpt lat="44.14662" lon="5.86859">
        <ele>690</ele>
        <time>2021-04-12T10:21:26+02:00</time>
      </trkpt>
      <trkpt lat="44.1473" lon="5.86907">
        <ele>680</ele>
        <time>2021-04-12T10:21:31+02:00</time>
      </trkpt>
      <trkpt lat="44.14708" lon="5.86949">
        <ele>673</ele>
        <time>2021-04-12T10:21:36+02:00</time>
      </trkpt>
      <trkpt lat="44.14788" lon="5.86975">
        <ele>654</ele>
        <time>2021-04-12T10:21:41+02:00</time>
      </trkpt>
      <trkpt lat="44.14754" lon="5.87082">
        <ele>652</ele>
        <time>2021-04-12T10:21:46+02:00</time>
      </trkpt>
      <trkpt lat="44.14887" lon="5.871">
        <ele>617</ele>
        <time>2021-04-12T10:21:51+02:00</time>
      </trkpt>
      <trkpt lat="44.14807" lon="5.87216">
        <ele>623</ele>
        <time>2021-04-12T10:21:56+02:00</time>
      </trkpt>
      <trkpt lat="44.14816" lon="5.87357">
        <ele>605</ele>
        <time>2021-04-12T10:22:01+02:00</time>
      </trkpt>
      <trkpt lat="44.14884" lon="5.87456">
        <ele>583</ele>
        <time>2021-04-12T10:22:06+02:00</time>
      </trkpt>
      <trkpt lat="44.15025" lon="5.87323">
        <ele>577</ele>
        <time>2021-04-12T10:22:11+02:00</time>
      </trkpt>
      <trkpt lat="44.14979" lon="5.87447">
        <ele>566</ele>
        <time>2021-04-12T10:22:16+02:00</time>
      </trkpt>
      <trkpt lat="44.14893" lon="5.8755">
        <ele>565</ele>
        <time>2021-04-12T10:22:21+02:00</time>
      </trkpt>
      <trkpt lat="44.14819" lon="5.87632">
        <ele>555</ele>
        <time>2021-04-12T10:22:26+02:00</time>
      </trkpt>
      <trkpt lat="44.15001" lon="5.87572">
        <ele>548</ele>
        <time>2021-04-12T10:22:31+02:00</time>
      </trkpt>
      <trkpt lat="44.15007" lon="5.8767">
        <ele>540</ele>
        <time>2021-04-12T10:22:36+02:00</time>
      </trkpt>
      <trkpt lat="44.14788" lon="5.88052">
        <ele>555</ele>
        <time>2021-04-12T10:22:41+02:00</time>
      </trkpt>
      <trkpt lat="44.14785" lon="5.88138">
        <ele>557</ele>
        <time>2021-04-12T10:22:46+02:00</time>
      </trkpt>
    </trkseg>
  </trk>
</gpx>